Charleston, West Virginia
Current Conditions -  °F | °C
As of 9:54 AM on Monday 24 Nov 2014 (Local Time) from KCRW Reporting Station
Scattered Clouds Scattered Clouds  
Wind Chill: 69°   Ceiling: Unl
Heat Index: 69°   Visibility: 10mi
Dew Point: 44°   Wind: 17mph
Humidity: 40%   Direction: 210°SSW
Pressure: 29.53"   Gusts: 23mph
Location:  38.35°N, 81.64°W
Report Text: KCRW 241454Z 21015G20KT 10SM SCT055 21/07 A2953 RMK AO2 PK WND 18030/1424 SLP992 T02060067 53006
Loading
Personal Weather Stations






























Interactive Weather Map New forecast layout! Learn more

10-Day Weather Forecast

Advertisements
Track Severe Weather on mobile